sensor_id;sensor_type;location;lat;lon;timestamp;temperature;humidity
11894;DHT22;6006;49.696;8.662;2022-08-03T00:00:18;17.60;95.90
11894;DHT22;6006;49.696;8.662;2022-08-03T00:02:45;17.50;96.30
11894;DHT22;6006;49.696;8.662;2022-08-03T00:05:12;17.50;96.80
11894;DHT22;6006;49.696;8.662;2022-08-03T00:07:39;17.50;97.00
11894;DHT22;6006;49.696;8.662;2022-08-03T00:10:07;17.50;97.80
11894;DHT22;6006;49.696;8.662;2022-08-03T00:12:34;17.50;97.90
11894;DHT22;6006;49.696;8.662;2022-08-03T00:15:02;17.40;98.60
11894;DHT22;6006;49.696;8.662;2022-08-03T00:17:31;17.40;98.80
11894;DHT22;6006;49.696;8.662;2022-08-03T00:19:57;17.30;99.50
11894;DHT22;6006;49.696;8.662;2022-08-03T00:22:24;17.30;99.90
11894;DHT22;6006;49.696;8.662;2022-08-03T00:24:51;17.30;99.90
11894;DHT22;6006;49.696;8.662;2022-08-03T00:27:18;17.30;99.90
11894;DHT22;6006;49.696;8.662;2022-08-03T00:29:45;17.30;99.90
11894;DHT22;6006;49.696;8.662;2022-08-03T00:32:12;17.20;99.90
11894;DHT22;6006;49.696;8.662;2022-08-03T00:34:40;17.20;99.90
11894;DHT22;6006;49.696;8.662;2022-08-03T00:37:07;17.20;99.90
11894;DHT22;6006;49.696;8.662;2022-08-03T00:39:34;17.10;99.90
11894;DHT22;6006;49.696;8.662;2022-08-03T00:42:01;17.10;99.90
11894;DHT22;6006;49.696;8.662;2022-08-03T00:44:28;17.10;99.90
11894;DHT22;6006;49.696;8.662;2022-08-03T00:46:55;17.10;99.90
11894;DHT22;6006;49.696;8.662;2022-08-03T00:49:22;17.00;99.90
11894;DHT22;6006;49.696;8.662;2022-08-03T00:51:51;17.00;99.90
11894;DHT22;6006;49.696;8.662;2022-08-03T00:54:19;17.00;99.90
11894;DHT22;6006;49.696;8.662;2022-08-03T00:56:46;17.00;99.90
11894;DHT22;6006;49.696;8.662;2022-08-03T00:59:15;16.90;99.90
11894;DHT22;6006;49.696;8.662;2022-08-03T01:01:42;16.90;99.90
11894;DHT22;6006;49.696;8.662;2022-08-03T01:04:09;16.90;99.90
11894;DHT22;6006;49.696;8.662;2022-08-03T01:06:44;16.90;99.90
11894;DHT22;6006;49.696;8.662;2022-08-03T01:09:19;16.90;99.90
11894;DHT22;6006;49.696;8.662;2022-08-03T01:11:52;16.90;99.90
11894;DHT22;6006;49.696;8.662;2022-08-03T01:14:24;16.90;99.90
11894;DHT22;6006;49.696;8.662;2022-08-03T01:16:58;16.90;99.90
11894;DHT22;6006;49.696;8.662;2022-08-03T01:19:44;16.90;99.90
11894;DHT22;6006;49.696;8.662;2022-08-03T01:22:30;16.90;99.90
11894;DHT22;6006;49.696;8.662;2022-08-03T01:25:05;16.80;99.90
11894;DHT22;6006;49.696;8.662;2022-08-03T01:27:47;16.80;99.90
11894;DHT22;6006;49.696;8.662;2022-08-03T01:30:18;16.80;99.90
11894;DHT22;6006;49.696;8.662;2022-08-03T01:32:49;16.80;99.90
11894;DHT22;6006;49.696;8.662;2022-08-03T01:35:25;16.80;99.90
11894;DHT22;6006;49.696;8.662;2022-08-03T01:37:56;16.80;99.90
11894;DHT22;6006;49.696;8.662;2022-08-03T01:40:24;16.80;99.90
11894;DHT22;6006;49.696;8.662;2022-08-03T01:42:53;16.80;99.90
11894;DHT22;6006;49.696;8.662;2022-08-03T01:45:23;16.70;99.90
11894;DHT22;6006;49.696;8.662;2022-08-03T01:47:51;16.70;99.90
11894;DHT22;6006;49.696;8.662;2022-08-03T01:50:21;16.70;99.90
11894;DHT22;6006;49.696;8.662;2022-08-03T01:52:49;16.70;99.90
11894;DHT22;6006;49.696;8.662;2022-08-03T01:55:18;16.60;99.90
11894;DHT22;6006;49.696;8.662;2022-08-03T01:57:47;16.60;99.90
11894;DHT22;6006;49.696;8.662;2022-08-03T02:00:15;16.60;99.90
11894;DHT22;6006;49.696;8.662;2022-08-03T02:02:47;16.60;99.90
11894;DHT22;6006;49.696;8.662;2022-08-03T02:05:15;16.60;99.90
11894;DHT22;6006;49.696;8.662;2022-08-03T02:07:45;16.60;99.90
11894;DHT22;6006;49.696;8.662;2022-08-03T02:10:14;16.50;99.90
11894;DHT22;6006;49.696;8.662;2022-08-03T02:12:44;16.50;99.90
11894;DHT22;6006;49.696;8.662;2022-08-03T02:15:14;16.50;99.90
11894;DHT22;6006;49.696;8.662;2022-08-03T02:17:44;16.40;99.90
11894;DHT22;6006;49.696;8.662;2022-08-03T02:20:13;16.40;99.90
11894;DHT22;6006;49.696;8.662;2022-08-03T02:22:42;16.40;99.90
11894;DHT22;6006;49.696;8.662;2022-08-03T02:25:10;16.40;99.90
11894;DHT22;6006;49.696;8.662;2022-08-03T02:27:39;16.30;99.90
11894;DHT22;6006;49.696;8.662;2022-08-03T02:30:08;16.30;99.90
11894;DHT22;6006;49.696;8.662;2022-08-03T02:32:39;16.30;99.90
11894;DHT22;6006;49.696;8.662;2022-08-03T02:35:10;16.20;99.90
11894;DHT22;6006;49.696;8.662;2022-08-03T02:37:42;16.20;99.90
11894;DHT22;6006;49.696;8.662;2022-08-03T02:40:11;16.20;99.90
11894;DHT22;6006;49.696;8.662;2022-08-03T02:42:39;16.10;99.90
11894;DHT22;6006;49.696;8.662;2022-08-03T02:45:10;16.10;99.90
11894;DHT22;6006;49.696;8.662;2022-08-03T02:47:39;16.10;99.90
11894;DHT22;6006;49.696;8.662;2022-08-03T02:50:11;16.10;99.90
11894;DHT22;6006;49.696;8.662;2022-08-03T02:52:39;16.10;99.90
11894;DHT22;6006;49.696;8.662;2022-08-03T02:55:09;16.00;99.90
11894;DHT22;6006;49.696;8.662;2022-08-03T02:57:36;16.00;99.90
11894;DHT22;6006;49.696;8.662;2022-08-03T03:00:07;16.00;99.90
11894;DHT22;6006;49.696;8.662;2022-08-03T03:02:34;16.00;99.90
11894;DHT22;6006;49.696;8.662;2022-08-03T03:05:02;15.90;99.90
11894;DHT22;6006;49.696;8.662;2022-08-03T03:07:32;15.90;99.90
11894;DHT22;6006;49.696;8.662;2022-08-03T03:09:59;15.90;99.90
11894;DHT22;6006;49.696;8.662;2022-08-03T03:12:27;15.90;99.90
11894;DHT22;6006;49.696;8.662;2022-08-03T03:14:54;15.80;99.90
11894;DHT22;6006;49.696;8.662;2022-08-03T03:17:21;15.80;99.90
11894;DHT22;6006;49.696;8.662;2022-08-03T03:19:51;15.70;99.90
11894;DHT22;6006;49.696;8.662;2022-08-03T03:22:18;15.70;99.90
11894;DHT22;6006;49.696;8.662;2022-08-03T03:24:47;15.70;99.90
11894;DHT22;6006;49.696;8.662;2022-08-03T03:27:16;15.70;99.90
11894;DHT22;6006;49.696;8.662;2022-08-03T03:29:43;15.70;99.90
11894;DHT22;6006;49.696;8.662;2022-08-03T03:32:10;15.70;99.90
11894;DHT22;6006;49.696;8.662;2022-08-03T03:34:38;15.60;99.90
11894;DHT22;6006;49.696;8.662;2022-08-03T03:37:05;15.60;99.90
11894;DHT22;6006;49.696;8.662;2022-08-03T03:39:32;15.50;99.90
11894;DHT22;6006;49.696;8.662;2022-08-03T03:42:02;15.50;99.90
11894;DHT22;6006;49.696;8.662;2022-08-03T03:44:30;15.50;99.90
11894;DHT22;6006;49.696;8.662;2022-08-03T03:46:57;15.50;99.90
11894;DHT22;6006;49.696;8.662;2022-08-03T03:49:24;15.50;99.90
11894;DHT22;6006;49.696;8.662;2022-08-03T03:51:52;15.40;99.90
11894;DHT22;6006;49.696;8.662;2022-08-03T03:54:19;15.40;99.90
11894;DHT22;6006;49.696;8.662;2022-08-03T03:56:46;15.40;99.90
11894;DHT22;6006;49.696;8.662;2022-08-03T03:59:15;15.40;99.90
11894;DHT22;6006;49.696;8.662;2022-08-03T04:01:43;15.50;99.90
11894;DHT22;6006;49.696;8.662;2022-08-03T04:04:10;15.40;99.90
11894;DHT22;6006;49.696;8.662;2022-08-03T04:06:54;15.50;99.90
11894;DHT22;6006;49.696;8.662;2022-08-03T04:09:40;15.40;99.90
11894;DHT22;6006;49.696;8.662;2022-08-03T04:12:27;15.40;99.90
11894;DHT22;6006;49.696;8.662;2022-08-03T04:14:58;15.40;99.90
11894;DHT22;6006;49.696;8.662;2022-08-03T04:17:27;15.40;99.90
11894;DHT22;6006;49.696;8.662;2022-08-03T04:19:55;15.40;99.90
11894;DHT22;6006;49.696;8.662;2022-08-03T04:22:25;15.50;99.90
11894;DHT22;6006;49.696;8.662;2022-08-03T04:24:56;15.50;99.90
11894;DHT22;6006;49.696;8.662;2022-08-03T04:27:28;15.50;99.90
11894;DHT22;6006;49.696;8.662;2022-08-03T04:29:59;15.50;99.90
11894;DHT22;6006;49.696;8.662;2022-08-03T04:32:28;15.40;99.90
11894;DHT22;6006;49.696;8.662;2022-08-03T04:34:56;15.50;99.90
11894;DHT22;6006;49.696;8.662;2022-08-03T04:37:28;15.50;99.90
11894;DHT22;6006;49.696;8.662;2022-08-03T04:40:02;15.50;99.90
11894;DHT22;6006;49.696;8.662;2022-08-03T04:42:30;15.60;99.90
11894;DHT22;6006;49.696;8.662;2022-08-03T04:45:00;15.60;99.90
11894;DHT22;6006;49.696;8.662;2022-08-03T04:47:30;15.60;99.90
11894;DHT22;6006;49.696;8.662;2022-08-03T04:49:59;15.60;99.90
11894;DHT22;6006;49.696;8.662;2022-08-03T04:52:26;15.60;99.90
11894;DHT22;6006;49.696;8.662;2022-08-03T04:54:53;15.60;99.90
11894;DHT22;6006;49.696;8.662;2022-08-03T04:57:19;15.70;99.90
11894;DHT22;6006;49.696;8.662;2022-08-03T04:59:46;15.70;99.90
11894;DHT22;6006;49.696;8.662;2022-08-03T05:02:15;15.80;99.90
11894;DHT22;6006;49.696;8.662;2022-08-03T05:04:41;15.80;99.90
11894;DHT22;6006;49.696;8.662;2022-08-03T05:07:11;15.90;99.90
11894;DHT22;6006;49.696;8.662;2022-08-03T05:09:38;16.10;99.90
11894;DHT22;6006;49.696;8.662;2022-08-03T05:12:05;16.20;99.90
11894;DHT22;6006;49.696;8.662;2022-08-03T05:14:32;16.40;99.90
11894;DHT22;6006;49.696;8.662;2022-08-03T05:17:00;16.60;99.90
11894;DHT22;6006;49.696;8.662;2022-08-03T05:19:28;16.80;99.90
11894;DHT22;6006;49.696;8.662;2022-08-03T05:21:55;17.10;99.90
11894;DHT22;6006;49.696;8.662;2022-08-03T05:24:22;17.30;99.90
11894;DHT22;6006;49.696;8.662;2022-08-03T05:26:49;17.50;99.90
11894;DHT22;6006;49.696;8.662;2022-08-03T05:29:16;17.70;99.90
11894;DHT22;6006;49.696;8.662;2022-08-03T05:31:42;17.90;99.90
11894;DHT22;6006;49.696;8.662;2022-08-03T05:34:09;18.10;99.90
11894;DHT22;6006;49.696;8.662;2022-08-03T05:36:37;18.30;99.90
11894;DHT22;6006;49.696;8.662;2022-08-03T05:39:04;18.40;99.90
11894;DHT22;6006;49.696;8.662;2022-08-03T05:41:31;18.60;99.90
11894;DHT22;6006;49.696;8.662;2022-08-03T05:43:58;18.70;99.90
11894;DHT22;6006;49.696;8.662;2022-08-03T05:46:25;18.90;99.90
11894;DHT22;6006;49.696;8.662;2022-08-03T05:48:52;19.10;99.90
11894;DHT22;6006;49.696;8.662;2022-08-03T05:51:19;19.40;99.90
11894;DHT22;6006;49.696;8.662;2022-08-03T05:53:48;19.50;99.90
11894;DHT22;6006;49.696;8.662;2022-08-03T05:56:15;19.70;99.90
11894;DHT22;6006;49.696;8.662;2022-08-03T05:58:43;19.90;99.90
11894;DHT22;6006;49.696;8.662;2022-08-03T06:01:10;20.10;99.90
11894;DHT22;6006;49.696;8.662;2022-08-03T06:03:37;20.40;99.90
11894;DHT22;6006;49.696;8.662;2022-08-03T06:06:04;20.60;99.90
11894;DHT22;6006;49.696;8.662;2022-08-03T06:08:31;20.90;99.10
11894;DHT22;6006;49.696;8.662;2022-08-03T06:11:00;21.30;96.90
11894;DHT22;6006;49.696;8.662;2022-08-03T06:13:27;21.80;94.80
11894;DHT22;6006;49.696;8.662;2022-08-03T06:15:54;22.20;92.50
11894;DHT22;6006;49.696;8.662;2022-08-03T06:18:20;22.30;92.40
11894;DHT22;6006;49.696;8.662;2022-08-03T06:20:49;22.50;90.90
11894;DHT22;6006;49.696;8.662;2022-08-03T06:23:15;23.00;90.30
11894;DHT22;6006;49.696;8.662;2022-08-03T06:25:42;23.40;87.80
11894;DHT22;6006;49.696;8.662;2022-08-03T06:28:11;23.70;85.30
11894;DHT22;6006;49.696;8.662;2022-08-03T06:30:38;24.20;82.40
11894;DHT22;6006;49.696;8.662;2022-08-03T06:33:05;24.40;80.20
11894;DHT22;6006;49.696;8.662;2022-08-03T06:35:32;24.90;76.90
11894;DHT22;6006;49.696;8.662;2022-08-03T06:37:59;24.80;75.40
11894;DHT22;6006;49.696;8.662;2022-08-03T06:40:27;25.00;73.60
11894;DHT22;6006;49.696;8.662;2022-08-03T06:42:55;25.10;71.90
11894;DHT22;6006;49.696;8.662;2022-08-03T06:45:24;25.30;73.30
11894;DHT22;6006;49.696;8.662;2022-08-03T06:47:59;25.50;69.70
11894;DHT22;6006;49.696;8.662;2022-08-03T06:50:26;25.80;64.30
11894;DHT22;6006;49.696;8.662;2022-08-03T06:52:53;26.20;64.00
11894;DHT22;6006;49.696;8.662;2022-08-03T06:55:20;26.80;58.10
11894;DHT22;6006;49.696;8.662;2022-08-03T06:57:47;27.30;54.10
11894;DHT22;6006;49.696;8.662;2022-08-03T07:00:14;27.40;53.20
11894;DHT22;6006;49.696;8.662;2022-08-03T07:02:43;27.20;52.80
11894;DHT22;6006;49.696;8.662;2022-08-03T07:05:10;27.20;53.40
11894;DHT22;6006;49.696;8.662;2022-08-03T07:07:37;27.20;50.90
11894;DHT22;6006;49.696;8.662;2022-08-03T07:10:05;27.30;49.70
11894;DHT22;6006;49.696;8.662;2022-08-03T07:12:33;27.80;47.10
11894;DHT22;6006;49.696;8.662;2022-08-03T07:15:00;28.30;43.50
11894;DHT22;6006;49.696;8.662;2022-08-03T07:17:29;28.10;43.60
11894;DHT22;6006;49.696;8.662;2022-08-03T07:19:58;28.00;42.60
11894;DHT22;6006;49.696;8.662;2022-08-03T07:22:25;28.30;42.90
11894;DHT22;6006;49.696;8.662;2022-08-03T07:24:52;28.70;39.20
11894;DHT22;6006;49.696;8.662;2022-08-03T07:27:19;29.00;38.40
11894;DHT22;6006;49.696;8.662;2022-08-03T07:29:47;29.30;34.60
11894;DHT22;6006;49.696;8.662;2022-08-03T07:32:14;29.30;34.00
11894;DHT22;6006;49.696;8.662;2022-08-03T07:34:40;29.20;33.00
11894;DHT22;6006;49.696;8.662;2022-08-03T07:37:12;28.90;33.10
11894;DHT22;6006;49.696;8.662;2022-08-03T07:39:39;28.80;33.40
11894;DHT22;6006;49.696;8.662;2022-08-03T07:42:06;28.50;33.10
11894;DHT22;6006;49.696;8.662;2022-08-03T07:44:33;29.20;32.80
11894;DHT22;6006;49.696;8.662;2022-08-03T07:47:00;29.60;30.20
11894;DHT22;6006;49.696;8.662;2022-08-03T07:49:27;30.10;28.10
11894;DHT22;6006;49.696;8.662;2022-08-03T07:51:54;30.10;28.40
11894;DHT22;6006;49.696;8.662;2022-08-03T07:54:36;30.30;27.70
11894;DHT22;6006;49.696;8.662;2022-08-03T07:57:03;30.70;26.20
11894;DHT22;6006;49.696;8.662;2022-08-03T07:59:30;30.80;26.10
11894;DHT22;6006;49.696;8.662;2022-08-03T08:01:57;30.80;24.60
11894;DHT22;6006;49.696;8.662;2022-08-03T08:04:23;30.80;24.50
11894;DHT22;6006;49.696;8.662;2022-08-03T08:06:50;30.90;25.00
11894;DHT22;6006;49.696;8.662;2022-08-03T08:09:17;30.80;25.40
11894;DHT22;6006;49.696;8.662;2022-08-03T08:11:46;30.70;23.80
11894;DHT22;6006;49.696;8.662;2022-08-03T08:14:12;30.50;25.70
11894;DHT22;6006;49.696;8.662;2022-08-03T08:16:39;30.20;25.40
11894;DHT22;6006;49.696;8.662;2022-08-03T08:19:06;30.50;23.20
11894;DHT22;6006;49.696;8.662;2022-08-03T08:21:33;31.00;23.10
11894;DHT22;6006;49.696;8.662;2022-08-03T08:24:00;30.90;23.70
11894;DHT22;6006;49.696;8.662;2022-08-03T08:26:27;30.60;21.30
11894;DHT22;6006;49.696;8.662;2022-08-03T08:28:55;30.70;23.60
11894;DHT22;6006;49.696;8.662;2022-08-03T08:31:22;30.80;22.40
11894;DHT22;6006;49.696;8.662;2022-08-03T08:33:49;31.10;21.20
11894;DHT22;6006;49.696;8.662;2022-08-03T08:36:16;31.30;20.80
11894;DHT22;6006;49.696;8.662;2022-08-03T08:38:43;31.50;19.30
11894;DHT22;6006;49.696;8.662;2022-08-03T08:41:11;31.50;19.60
11894;DHT22;6006;49.696;8.662;2022-08-03T08:43:38;31.50;18.50
11894;DHT22;6006;49.696;8.662;2022-08-03T08:46:07;31.80;19.60
11894;DHT22;6006;49.696;8.662;2022-08-03T08:48:40;31.50;20.10
11894;DHT22;6006;49.696;8.662;2022-08-03T08:51:07;31.40;20.50
11894;DHT22;6006;49.696;8.662;2022-08-03T08:53:35;32.00;16.80
11894;DHT22;6006;49.696;8.662;2022-08-03T08:56:03;32.50;16.80
11894;DHT22;6006;49.696;8.662;2022-08-03T08:58:37;32.40;15.90
11894;DHT22;6006;49.696;8.662;2022-08-03T09:01:07;32.30;15.70
11894;DHT22;6006;49.696;8.662;2022-08-03T09:03:34;32.00;16.30
11894;DHT22;6006;49.696;8.662;2022-08-03T09:06:01;32.60;14.40
11894;DHT22;6006;49.696;8.662;2022-08-03T09:08:29;32.60;14.80
11894;DHT22;6006;49.696;8.662;2022-08-03T09:10:56;32.20;13.20
11894;DHT22;6006;49.696;8.662;2022-08-03T09:13:23;32.60;15.60
11894;DHT22;6006;49.696;8.662;2022-08-03T09:16:10;32.90;13.30
11894;DHT22;6006;49.696;8.662;2022-08-03T09:18:38;33.40;11.30
11894;DHT22;6006;49.696;8.662;2022-08-03T09:21:21;32.80;13.60
11894;DHT22;6006;49.696;8.662;2022-08-03T09:23:50;33.00;12.10
11894;DHT22;6006;49.696;8.662;2022-08-03T09:26:22;32.50;13.10
11894;DHT22;6006;49.696;8.662;2022-08-03T09:29:00;32.70;12.60
11894;DHT22;6006;49.696;8.662;2022-08-03T09:31:32;32.70;14.80
11894;DHT22;6006;49.696;8.662;2022-08-03T09:34:01;33.20;11.50
11894;DHT22;6006;49.696;8.662;2022-08-03T09:36:37;33.20;10.00
11894;DHT22;6006;49.696;8.662;2022-08-03T09:39:06;33.70;9.50
11894;DHT22;6006;49.696;8.662;2022-08-03T09:41:35;33.60;10.10
11894;DHT22;6006;49.696;8.662;2022-08-03T09:44:03;34.00;9.90
11894;DHT22;6006;49.696;8.662;2022-08-03T09:46:31;33.60;9.50
11894;DHT22;6006;49.696;8.662;2022-08-03T09:49:08;33.90;8.30
11894;DHT22;6006;49.696;8.662;2022-08-03T09:51:36;34.00;9.20
11894;DHT22;6006;49.696;8.662;2022-08-03T09:54:03;34.70;7.40
11894;DHT22;6006;49.696;8.662;2022-08-03T09:56:38;35.10;5.10
11894;DHT22;6006;49.696;8.662;2022-08-03T09:59:05;35.20;5.00
11894;DHT22;6006;49.696;8.662;2022-08-03T10:01:34;35.00;7.80
11894;DHT22;6006;49.696;8.662;2022-08-03T10:04:02;34.50;5.10
11894;DHT22;6006;49.696;8.662;2022-08-03T10:06:29;35.20;3.90
11894;DHT22;6006;49.696;8.662;2022-08-03T10:09:05;36.00;4.30
11894;DHT22;6006;49.696;8.662;2022-08-03T10:11:33;37.00;1.00
11894;DHT22;6006;49.696;8.662;2022-08-03T10:14:02;36.60;1.60
11894;DHT22;6006;49.696;8.662;2022-08-03T10:16:34;36.20;1.00
11894;DHT22;6006;49.696;8.662;2022-08-03T10:19:03;35.70;1.00
11894;DHT22;6006;49.696;8.662;2022-08-03T10:21:33;36.50;1.00
11894;DHT22;6006;49.696;8.662;2022-08-03T10:24:02;35.70;1.00
11894;DHT22;6006;49.696;8.662;2022-08-03T10:26:31;35.90;1.00
11894;DHT22;6006;49.696;8.662;2022-08-03T10:28:59;36.40;1.00
11894;DHT22;6006;49.696;8.662;2022-08-03T10:31:32;36.60;1.00
11894;DHT22;6006;49.696;8.662;2022-08-03T10:34:04;36.60;1.00
11894;DHT22;6006;49.696;8.662;2022-08-03T10:36:32;35.60;1.00
11894;DHT22;6006;49.696;8.662;2022-08-03T10:39:02;35.80;1.00
11894;DHT22;6006;49.696;8.662;2022-08-03T10:41:31;35.00;1.00
11894;DHT22;6006;49.696;8.662;2022-08-03T10:44:02;34.90;1.00
11894;DHT22;6006;49.696;8.662;2022-08-03T10:46:29;35.50;1.00
11894;DHT22;6006;49.696;8.662;2022-08-03T10:48:57;35.30;1.00
11894;DHT22;6006;49.696;8.662;2022-08-03T10:51:26;36.10;1.00
11894;DHT22;6006;49.696;8.662;2022-08-03T10:53:56;37.00;1.00
11894;DHT22;6006;49.696;8.662;2022-08-03T10:56:40;37.40;1.00
11894;DHT22;6006;49.696;8.662;2022-08-03T10:59:56;36.30;1.00
11894;DHT22;6006;49.696;8.662;2022-08-03T11:03:03;35.70;1.00
11894;DHT22;6006;49.696;8.662;2022-08-03T11:05:32;35.40;1.00
11894;DHT22;6006;49.696;8.662;2022-08-03T11:08:34;35.20;1.00
11894;DHT22;6006;49.696;8.662;2022-08-03T11:11:23;36.00;1.00
11894;DHT22;6006;49.696;8.662;2022-08-03T11:13:57;37.40;1.00
11894;DHT22;6006;49.696;8.662;2022-08-03T11:16:25;38.30;1.00
11894;DHT22;6006;49.696;8.662;2022-08-03T11:18:58;38.20;1.00
11894;DHT22;6006;49.696;8.662;2022-08-03T11:21:54;37.60;1.00
11894;DHT22;6006;49.696;8.662;2022-08-03T11:24:57;37.10;1.00
11894;DHT22;6006;49.696;8.662;2022-08-03T11:27:25;36.50;1.00
11894;DHT22;6006;49.696;8.662;2022-08-03T11:29:54;37.00;1.00
11894;DHT22;6006;49.696;8.662;2022-08-03T11:32:51;37.80;1.00
11894;DHT22;6006;49.696;8.662;2022-08-03T11:35:20;38.30;1.00
11894;DHT22;6006;49.696;8.662;2022-08-03T11:38:05;38.80;1.00
11894;DHT22;6006;49.696;8.662;2022-08-03T11:40:38;39.00;1.00
11894;DHT22;6006;49.696;8.662;2022-08-03T11:43:07;38.30;1.00
11894;DHT22;6006;49.696;8.662;2022-08-03T11:45:35;39.20;1.00
11894;DHT22;6006;49.696;8.662;2022-08-03T11:48:13;38.70;1.00
11894;DHT22;6006;49.696;8.662;2022-08-03T11:50:41;38.20;1.00
11894;DHT22;6006;49.696;8.662;2022-08-03T11:53:13;38.30;1.00
11894;DHT22;6006;49.696;8.662;2022-08-03T11:55:42;37.70;1.00
11894;DHT22;6006;49.696;8.662;2022-08-03T11:58:17;37.80;1.00
11894;DHT22;6006;49.696;8.662;2022-08-03T12:00:44;38.00;1.00
11894;DHT22;6006;49.696;8.662;2022-08-03T12:03:12;37.60;1.00
11894;DHT22;6006;49.696;8.662;2022-08-03T12:05:45;37.80;1.00
11894;DHT22;6006;49.696;8.662;2022-08-03T12:08:14;38.30;1.00
11894;DHT22;6006;49.696;8.662;2022-08-03T12:10:49;37.80;1.00
11894;DHT22;6006;49.696;8.662;2022-08-03T12:13:16;38.30;1.00
11894;DHT22;6006;49.696;8.662;2022-08-03T12:15:49;37.70;1.00
11894;DHT22;6006;49.696;8.662;2022-08-03T12:18:17;37.60;1.00
11894;DHT22;6006;49.696;8.662;2022-08-03T12:20:45;37.80;1.00
11894;DHT22;6006;49.696;8.662;2022-08-03T12:23:13;38.20;1.00
11894;DHT22;6006;49.696;8.662;2022-08-03T12:25:41;39.10;1.00
11894;DHT22;6006;49.696;8.662;2022-08-03T12:28:12;40.10;1.00
11894;DHT22;6006;49.696;8.662;2022-08-03T12:30:42;40.10;1.00
11894;DHT22;6006;49.696;8.662;2022-08-03T12:33:29;39.10;1.00
11894;DHT22;6006;49.696;8.662;2022-08-03T12:36:06;38.90;1.00
11894;DHT22;6006;49.696;8.662;2022-08-03T12:38:35;39.40;1.00
11894;DHT22;6006;49.696;8.662;2022-08-03T12:41:04;38.90;1.00
11894;DHT22;6006;49.696;8.662;2022-08-03T12:43:34;38.50;1.00
11894;DHT22;6006;49.696;8.662;2022-08-03T12:46:12;38.20;1.00
11894;DHT22;6006;49.696;8.662;2022-08-03T12:49:05;39.30;1.00
11894;DHT22;6006;49.696;8.662;2022-08-03T12:51:34;38.90;1.00
11894;DHT22;6006;49.696;8.662;2022-08-03T12:54:02;40.30;1.00
11894;DHT22;6006;49.696;8.662;2022-08-03T12:56:29;40.70;1.00
11894;DHT22;6006;49.696;8.662;2022-08-03T12:58:57;39.60;1.00
11894;DHT22;6006;49.696;8.662;2022-08-03T13:01:24;38.90;1.00
11894;DHT22;6006;49.696;8.662;2022-08-03T13:03:52;38.70;1.00
11894;DHT22;6006;49.696;8.662;2022-08-03T13:06:21;37.80;1.00
11894;DHT22;6006;49.696;8.662;2022-08-03T13:08:48;38.90;1.00
11894;DHT22;6006;49.696;8.662;2022-08-03T13:11:21;39.30;1.00
11894;DHT22;6006;49.696;8.662;2022-08-03T13:13:48;39.30;1.00
11894;DHT22;6006;49.696;8.662;2022-08-03T13:16:17;39.50;1.00
11894;DHT22;6006;49.696;8.662;2022-08-03T13:18:44;40.10;1.00
11894;DHT22;6006;49.696;8.662;2022-08-03T13:21:12;39.90;1.00
11894;DHT22;6006;49.696;8.662;2022-08-03T13:23:40;38.80;1.00
11894;DHT22;6006;49.696;8.662;2022-08-03T13:26:07;38.70;1.00
11894;DHT22;6006;49.696;8.662;2022-08-03T13:28:34;38.80;1.00
11894;DHT22;6006;49.696;8.662;2022-08-03T13:31:02;39.30;1.00
11894;DHT22;6006;49.696;8.662;2022-08-03T13:33:30;40.30;1.00
11894;DHT22;6006;49.696;8.662;2022-08-03T13:35:57;40.00;1.00
11894;DHT22;6006;49.696;8.662;2022-08-03T13:38:24;39.70;1.00
11894;DHT22;6006;49.696;8.662;2022-08-03T13:40:51;40.50;1.00
11894;DHT22;6006;49.696;8.662;2022-08-03T13:43:18;40.60;1.00
11894;DHT22;6006;49.696;8.662;2022-08-03T13:45:45;39.70;1.00
11894;DHT22;6006;49.696;8.662;2022-08-03T13:48:12;39.00;1.00
11894;DHT22;6006;49.696;8.662;2022-08-03T13:50:40;38.60;1.00
11894;DHT22;6006;49.696;8.662;2022-08-03T13:53:07;38.80;1.00
11894;DHT22;6006;49.696;8.662;2022-08-03T13:55:34;39.40;1.00
11894;DHT22;6006;49.696;8.662;2022-08-03T13:58:01;39.20;1.00
11894;DHT22;6006;49.696;8.662;2022-08-03T14:00:28;39.70;1.00
11894;DHT22;6006;49.696;8.662;2022-08-03T14:02:59;40.10;1.00
11894;DHT22;6006;49.696;8.662;2022-08-03T14:05:26;40.60;1.00
11894;DHT22;6006;49.696;8.662;2022-08-03T14:07:54;41.40;1.00
11894;DHT22;6006;49.696;8.662;2022-08-03T14:10:21;41.50;1.00
11894;DHT22;6006;49.696;8.662;2022-08-03T14:12:48;40.70;1.00
11894;DHT22;6006;49.696;8.662;2022-08-03T14:15:15;40.60;1.00
11894;DHT22;6006;49.696;8.662;2022-08-03T14:17:42;40.30;1.00
11894;DHT22;6006;49.696;8.662;2022-08-03T14:20:09;40.40;1.00
11894;DHT22;6006;49.696;8.662;2022-08-03T14:22:39;40.40;1.00
11894;DHT22;6006;49.696;8.662;2022-08-03T14:25:07;39.50;1.00
11894;DHT22;6006;49.696;8.662;2022-08-03T14:27:34;38.20;1.00
11894;DHT22;6006;49.696;8.662;2022-08-03T14:30:01;38.90;1.00
11894;DHT22;6006;49.696;8.662;2022-08-03T14:32:29;38.70;1.00
11894;DHT22;6006;49.696;8.662;2022-08-03T14:34:56;38.70;1.00
11894;DHT22;6006;49.696;8.662;2022-08-03T14:37:23;38.90;1.00
11894;DHT22;6006;49.696;8.662;2022-08-03T14:39:50;39.70;1.00
11894;DHT22;6006;49.696;8.662;2022-08-03T14:42:18;40.10;1.00
11894;DHT22;6006;49.696;8.662;2022-08-03T14:44:45;40.20;1.00
11894;DHT22;6006;49.696;8.662;2022-08-03T14:47:12;40.10;1.00
11894;DHT22;6006;49.696;8.662;2022-08-03T14:49:39;40.20;1.00
11894;DHT22;6006;49.696;8.662;2022-08-03T14:52:06;40.10;1.00
11894;DHT22;6006;49.696;8.662;2022-08-03T14:54:34;40.30;1.00
11894;DHT22;6006;49.696;8.662;2022-08-03T14:57:00;40.40;1.00
11894;DHT22;6006;49.696;8.662;2022-08-03T14:59:29;39.70;1.00
11894;DHT22;6006;49.696;8.662;2022-08-03T15:01:55;39.90;1.00
11894;DHT22;6006;49.696;8.662;2022-08-03T15:04:22;39.80;1.00
11894;DHT22;6006;49.696;8.662;2022-08-03T15:06:49;40.30;1.00
11894;DHT22;6006;49.696;8.662;2022-08-03T15:09:16;39.20;1.00
11894;DHT22;6006;49.696;8.662;2022-08-03T15:11:43;38.50;1.00
11894;DHT22;6006;49.696;8.662;2022-08-03T15:14:10;38.80;1.00
11894;DHT22;6006;49.696;8.662;2022-08-03T15:16:38;39.00;1.00
11894;DHT22;6006;49.696;8.662;2022-08-03T15:19:05;39.70;1.00
11894;DHT22;6006;49.696;8.662;2022-08-03T15:21:32;40.10;1.00
11894;DHT22;6006;49.696;8.662;2022-08-03T15:23:58;39.50;1.00
11894;DHT22;6006;49.696;8.662;2022-08-03T15:26:25;40.10;1.00
11894;DHT22;6006;49.696;8.662;2022-08-03T15:28:52;39.20;1.00
11894;DHT22;6006;49.696;8.662;2022-08-03T15:31:22;38.80;1.00
11894;DHT22;6006;49.696;8.662;2022-08-03T15:33:50;39.00;1.00
11894;DHT22;6006;49.696;8.662;2022-08-03T15:36:17;38.60;1.00
11894;DHT22;6006;49.696;8.662;2022-08-03T15:38:45;38.30;1.00
11894;DHT22;6006;49.696;8.662;2022-08-03T15:41:12;38.90;1.00
11894;DHT22;6006;49.696;8.662;2022-08-03T15:43:39;39.40;1.00
11894;DHT22;6006;49.696;8.662;2022-08-03T15:46:06;40.00;1.00
11894;DHT22;6006;49.696;8.662;2022-08-03T15:48:33;40.00;1.00
11894;DHT22;6006;49.696;8.662;2022-08-03T15:51:01;39.40;1.00
11894;DHT22;6006;49.696;8.662;2022-08-03T15:53:29;38.90;1.00
11894;DHT22;6006;49.696;8.662;2022-08-03T15:55:56;38.80;1.00
11894;DHT22;6006;49.696;8.662;2022-08-03T15:58:23;39.10;1.00
11894;DHT22;6006;49.696;8.662;2022-08-03T16:00:55;38.40;1.00
11894;DHT22;6006;49.696;8.662;2022-08-03T16:03:22;38.70;1.00
11894;DHT22;6006;49.696;8.662;2022-08-03T16:05:49;39.40;1.00